createdAt,value
2022-08-28T00:00:20.500Z,99.9
2022-08-28T00:02:22.449Z,99.9
2022-08-28T00:04:24.394Z,99.9
2022-08-28T00:06:26.265Z,99.9
2022-08-28T00:08:28.204Z,99.9
2022-08-28T00:10:33.240Z,99.9
2022-08-28T00:12:35.168Z,99.9
2022-08-28T00:14:37.102Z,99.9
2022-08-28T00:16:39.061Z,99.9
2022-08-28T00:18:41.003Z,99.9
2022-08-28T00:20:42.899Z,99.9
2022-08-28T00:22:44.816Z,99.9
2022-08-28T00:24:49.921Z,99.9
2022-08-28T00:26:51.843Z,99.9
2022-08-28T00:28:53.773Z,99.9
2022-08-28T00:32:57.647Z,99.9
2022-08-28T00:34:59.594Z,99.9
2022-08-28T00:37:01.538Z,99.9
2022-08-28T00:39:06.576Z,99.9
2022-08-28T00:41:08.500Z,99.9
2022-08-28T00:43:10.434Z,99.9
2022-08-28T00:44:12.951Z,99.9
2022-08-28T00:46:14.935Z,99.9
2022-08-28T00:48:16.839Z,99.9
2022-08-28T00:50:18.769Z,99.9
2022-08-28T00:52:23.809Z,99.9
2022-08-28T00:54:25.741Z,99.9
2022-08-28T00:56:27.701Z,99.9
2022-08-28T00:58:29.612Z,99.9
2022-08-28T01:00:31.536Z,99.9
2022-08-28T01:02:33.539Z,99.9
2022-08-28T01:04:35.374Z,99.9
2022-08-28T01:06:40.438Z,99.9
2022-08-28T01:08:42.387Z,99.9
2022-08-28T01:10:44.277Z,99.9
2022-08-28T01:12:46.211Z,99.9
2022-08-28T01:14:48.171Z,99.9
2022-08-28T01:16:50.104Z,99.9
2022-08-28T01:18:52.039Z,99.9
2022-08-28T01:20:57.120Z,99.9
2022-08-28T01:22:59.037Z,99.9
2022-08-28T01:25:00.979Z,99.9
2022-08-28T01:27:02.924Z,99.9
2022-08-28T01:31:06.816Z,99.9
2022-08-28T01:33:08.667Z,99.9
2022-08-28T01:35:15.270Z,99.9
2022-08-28T01:37:17.255Z,99.9
2022-08-28T01:39:19.272Z,99.9
2022-08-28T01:41:47.910Z,99.9
2022-08-28T01:47:56.815Z,99.9
2022-08-28T01:52:00.690Z,99.9
2022-08-28T01:54:02.615Z,99.9
2022-08-28T02:00:08.371Z,99.9
2022-08-28T02:02:13.443Z,99.9
2022-08-28T02:06:17.327Z,99.9
2022-08-28T02:08:19.242Z,99.9
2022-08-28T02:10:21.190Z,99.9
2022-08-28T02:16:30.197Z,99.9
2022-08-28T02:20:34.040Z,99.9
2022-08-28T02:22:35.973Z,99.9
2022-08-28T02:24:37.904Z,99.9
2022-08-28T02:26:39.796Z,99.9
2022-08-28T02:28:41.735Z,99.9
2022-08-28T02:30:46.926Z,99.9
2022-08-28T02:32:48.716Z,99.9
2022-08-28T02:34:50.694Z,99.9
2022-08-28T02:35:53.204Z,99.9
2022-08-28T02:37:55.490Z,99.9
2022-08-28T02:39:57.146Z,99.9
2022-08-28T02:41:59.113Z,99.9
2022-08-28T02:44:04.285Z,99.9
2022-08-28T02:46:06.281Z,99.9
2022-08-28T02:48:12.050Z,99.9
2022-08-28T02:50:10.773Z,99.9
2022-08-28T02:52:12.687Z,99.9
2022-08-28T03:00:23.519Z,99.9
2022-08-28T03:02:25.498Z,99.9
2022-08-28T03:04:27.477Z,99.9
2022-08-28T03:06:29.428Z,99.9
2022-08-28T03:08:31.469Z,99.9
2022-08-28T03:10:33.442Z,99.9
2022-08-28T03:12:38.577Z,99.9
2022-08-28T03:14:40.620Z,99.9
2022-08-28T03:16:42.629Z,99.9
2022-08-28T03:24:50.364Z,99.9
2022-08-28T03:30:59.589Z,99.9
2022-08-28T03:32:02.181Z,99.9
2022-08-28T03:36:06.025Z,99.9
2022-08-28T03:40:13.172Z,99.9
2022-08-28T03:42:15.156Z,99.9
2022-08-28T03:46:19.061Z,99.9
2022-08-28T03:54:30.301Z,99.9
2022-08-28T03:56:32.230Z,99.9
2022-08-28T04:00:36.201Z,99.9
2022-08-28T04:04:40.206Z,99.9
2022-08-28T04:06:42.137Z,99.9
2022-08-28T04:08:47.329Z,99.9
2022-08-28T04:10:49.239Z,99.9
2022-08-28T04:12:51.201Z,99.9
2022-08-28T04:14:53.144Z,99.9
2022-08-28T04:16:57.587Z,99.9
2022-08-28T04:20:59.151Z,99.9
2022-08-28T04:23:04.316Z,99.9
2022-08-28T04:28:10.819Z,99.9
2022-08-28T04:30:12.691Z,99.9
2022-08-28T04:32:14.719Z,99.9
2022-08-28T04:34:16.640Z,99.9
2022-08-28T04:36:21.832Z,99.9
2022-08-28T04:38:23.771Z,99.9
2022-08-28T04:40:25.880Z,99.9
2022-08-28T04:42:27.741Z,99.9
2022-08-28T04:44:29.807Z,99.9
2022-08-28T04:46:31.750Z,99.9
2022-08-28T04:48:33.770Z,99.9
2022-08-28T04:50:38.930Z,99.9
2022-08-28T04:52:40.880Z,99.9
2022-08-28T04:54:42.893Z,99.9
2022-08-28T04:56:44.847Z,99.9
2022-08-28T04:58:46.779Z,99.9
2022-08-28T05:00:48.795Z,99.9
2022-08-28T05:02:50.646Z,99.9
2022-08-28T05:08:59.941Z,99.9
2022-08-28T05:11:01.842Z,99.9
2022-08-28T05:13:03.868Z,99.9
2022-08-28T05:15:05.959Z,99.9
2022-08-28T05:17:07.733Z,99.9
2022-08-28T05:19:12.809Z,99.9
2022-08-28T05:21:14.741Z,99.9
2022-08-28T05:25:45.345Z,99.9
2022-08-28T05:27:47.300Z,99.9
2022-08-28T05:29:49.228Z,99.9
2022-08-28T05:31:54.298Z,99.9
2022-08-28T05:33:56.197Z,99.9
2022-08-28T05:35:58.281Z,99.9
2022-08-28T05:38:00.017Z,99.9
2022-08-28T05:40:02.067Z,99.9
2022-08-28T05:42:03.872Z,99.9
2022-08-28T05:44:05.818Z,99.9
2022-08-28T05:46:11.643Z,99.9
2022-08-28T05:48:12.993Z,99.9
2022-08-28T05:50:14.706Z,99.9
2022-08-28T05:52:16.610Z,99.9
2022-08-28T05:56:20.478Z,99.9
2022-08-28T05:58:22.413Z,99.9
2022-08-28T06:00:27.451Z,99.9
2022-08-28T06:02:29.407Z,99.9
2022-08-28T06:04:31.371Z,99.9
2022-08-28T06:06:33.243Z,99.9
2022-08-28T06:08:35.189Z,99.9
2022-08-28T06:10:37.106Z,99.9
2022-08-28T06:12:39.042Z,99.9
2022-08-28T06:14:44.076Z,99.9
2022-08-28T06:16:46.033Z,99.9
2022-08-28T06:18:47.930Z,99.9
2022-08-28T06:19:50.490Z,99.9
2022-08-28T06:21:52.500Z,99.9
2022-08-28T06:23:54.333Z,99.9
2022-08-28T06:25:56.217Z,99.9
2022-08-28T06:28:01.282Z,99.9
2022-08-28T06:30:03.202Z,99.9
2022-08-28T06:32:05.236Z,99.9
2022-08-28T06:34:07.030Z,99.9
2022-08-28T06:38:10.853Z,99.9
2022-08-28T06:40:12.777Z,99.9
2022-08-28T06:42:17.797Z,99.9
2022-08-28T06:44:19.709Z,99.9
2022-08-28T06:46:21.708Z,99.9
2022-08-28T06:50:25.391Z,99.9
2022-08-28T06:52:27.295Z,99.9
2022-08-28T06:54:29.179Z,99.9
2022-08-28T06:56:34.206Z,99.9
2022-08-28T06:58:36.104Z,99.9
2022-08-28T07:00:37.990Z,99.9
2022-08-28T07:02:39.929Z,99.9
2022-08-28T07:04:41.864Z,99.9
2022-08-28T07:06:43.652Z,99.9
2022-08-28T07:08:45.531Z,99.9
2022-08-28T07:10:50.562Z,99.9
2022-08-28T07:12:52.422Z,99.9
2022-08-28T07:14:54.293Z,99.9
2022-08-28T07:15:56.861Z,99.9
2022-08-28T07:17:58.685Z,99.9
2022-08-28T07:20:00.532Z,99.9
2022-08-28T07:22:02.440Z,99.9
2022-08-28T07:24:08.996Z,99.9
2022-08-28T07:26:10.839Z,99.9
2022-08-28T07:28:12.940Z,99.9
2022-08-28T07:30:14.601Z,99.9
2022-08-28T07:32:16.474Z,99.9
2022-08-28T07:34:18.320Z,99.9
2022-08-28T07:38:25.207Z,99.9
2022-08-28T07:46:32.703Z,99.9
2022-08-28T07:48:34.574Z,99.9
2022-08-28T07:54:43.341Z,99.9
2022-08-28T07:58:47.106Z,99.9
2022-08-28T08:06:58.277Z,99.9
2022-08-28T08:11:01.444Z,99.9
2022-08-28T08:12:03.987Z,99.9
2022-08-28T08:14:05.901Z,99.9
2022-08-28T08:18:09.604Z,99.9
2022-08-28T08:20:14.605Z,99.9
2022-08-28T08:30:23.947Z,99.9
2022-08-28T08:44:40.163Z,99.9
2022-08-28T08:46:42.114Z,99.9
2022-08-28T08:48:47.072Z,99.9
2022-08-28T08:50:48.902Z,99.9
2022-08-28T08:52:50.772Z,99.9
2022-08-28T08:54:55.402Z,99.9
2022-08-28T08:56:54.448Z,99.9
2022-08-28T08:58:56.296Z,99.9
2022-08-28T09:00:58.146Z,99.9
2022-08-28T09:03:03.180Z,99.9
2022-08-28T09:05:05.019Z,99.9
2022-08-28T09:07:06.904Z,99.9
2022-08-28T09:09:35.308Z,99.9
2022-08-28T09:11:37.172Z,99.9
2022-08-28T09:13:38.994Z,99.9
2022-08-28T09:15:46.318Z,99.9
2022-08-28T09:17:45.869Z,99.9
2022-08-28T09:19:47.706Z,99.9
2022-08-28T09:21:49.576Z,99.9
2022-08-28T09:23:51.409Z,99.9
2022-08-28T09:25:53.255Z,99.9
2022-08-28T09:27:55.123Z,99.9
2022-08-28T09:30:07.579Z,99.9
2022-08-28T09:34:03.826Z,99.9
2022-08-28T09:36:05.851Z,99.9
2022-08-28T09:38:07.536Z,99.9
2022-08-28T09:42:11.245Z,99.9
2022-08-28T09:44:16.252Z,99.9
2022-08-28T09:46:18.167Z,99.9
2022-08-28T09:50:21.789Z,99.9
2022-08-28T09:52:25.423Z,99.9
2022-08-28T09:54:25.492Z,99.9
2022-08-28T09:56:27.341Z,99.9
2022-08-28T10:00:34.232Z,99.9
2022-08-28T10:02:36.101Z,99.9
2022-08-28T10:03:38.596Z,99.9
2022-08-28T10:05:40.459Z,99.9
2022-08-28T10:07:42.294Z,99.9
2022-08-28T10:09:46.850Z,99.8
2022-08-28T10:11:49.154Z,99.8
2022-08-28T10:13:51.002Z,99.8
2022-08-28T10:17:54.701Z,98.5
2022-08-28T10:21:58.388Z,98.5
2022-08-28T10:26:05.245Z,98.8
2022-08-28T10:28:07.068Z,98.6
2022-08-28T10:30:12.485Z,98.4
2022-08-28T10:32:10.762Z,98.3
2022-08-28T10:34:12.593Z,98.4
2022-08-28T10:36:28.778Z,98.7
2022-08-28T10:38:16.291Z,98.9
2022-08-28T10:40:21.369Z,99.4
2022-08-28T10:42:23.142Z,99.8
2022-08-28T10:44:25.011Z,99
2022-08-28T10:46:27.488Z,98.7
2022-08-28T10:48:28.670Z,95.9
2022-08-28T10:50:30.492Z,96.3
2022-08-28T10:52:32.322Z,96.3
2022-08-28T10:54:37.344Z,96.4
2022-08-28T10:56:39.183Z,96.9
2022-08-28T10:58:41.008Z,97
2022-08-28T10:59:43.504Z,96.5
2022-08-28T11:03:47.193Z,96.3
2022-08-28T11:09:55.848Z,96.7
2022-08-28T11:12:01.801Z,96.9
2022-08-28T11:16:01.521Z,97
2022-08-28T11:18:03.327Z,95.3
2022-08-28T11:20:05.021Z,94.8
2022-08-28T11:22:10.027Z,93.9
2022-08-28T11:24:11.850Z,93.6
2022-08-28T11:26:13.729Z,93.9
2022-08-28T11:28:15.530Z,93.7
2022-08-28T11:30:17.464Z,93.6
2022-08-28T11:32:19.193Z,93.5
2022-08-28T11:34:21.037Z,92.6
2022-08-28T11:36:26.020Z,92.4
2022-08-28T11:38:27.867Z,92.4
2022-08-28T11:40:29.721Z,92.1
2022-08-28T11:42:31.544Z,91.9
2022-08-28T11:44:33.369Z,91.7
2022-08-28T11:46:35.244Z,91.6
2022-08-28T11:48:37.009Z,91.3
2022-08-28T11:50:42.028Z,91.5
2022-08-28T11:52:43.828Z,91.6
2022-08-28T11:55:48.179Z,91.8
2022-08-28T11:57:50.007Z,91.9
2022-08-28T11:59:51.822Z,86.9
2022-08-28T12:08:02.355Z,89.9
2022-08-28T12:12:05.927Z,89.8
2022-08-28T12:14:07.744Z,89.6
2022-08-28T12:16:09.615Z,85.9
2022-08-28T12:18:14.563Z,77.5
2022-08-28T12:20:16.369Z,85.7
2022-08-28T12:22:18.182Z,86.7
2022-08-28T12:24:20.017Z,87
2022-08-28T12:26:21.823Z,88.1
2022-08-28T12:28:23.641Z,89.5
2022-08-28T12:30:25.480Z,90.9
2022-08-28T12:32:30.464Z,91.3
2022-08-28T12:34:32.310Z,91.6
2022-08-28T12:36:34.114Z,90.7
2022-08-28T12:38:35.976Z,79.9
2022-08-28T12:40:37.968Z,80.3
2022-08-28T12:42:39.607Z,80.3
2022-08-28T12:44:41.455Z,80.7
2022-08-28T12:53:18.530Z,84
2022-08-28T12:55:24.164Z,84.5
2022-08-28T12:57:22.162Z,84.7
2022-08-28T12:59:27.770Z,85.4
2022-08-28T13:01:29.172Z,84.5
2022-08-28T13:05:32.606Z,82.9
2022-08-28T13:07:34.402Z,81.7
2022-08-28T13:11:38.067Z,79.7
2022-08-28T13:13:43.025Z,79
2022-08-28T13:15:46.400Z,79.2
2022-08-28T13:17:48.189Z,79.6
2022-08-28T13:19:49.978Z,80.4
2022-08-28T13:21:51.798Z,81.3
2022-08-28T13:23:53.613Z,82.2
2022-08-28T13:25:55.434Z,83.1
2022-08-28T13:28:00.423Z,84.5
2022-08-28T13:30:02.243Z,85.8
2022-08-28T13:32:04.081Z,85.7
2022-08-28T13:34:05.907Z,90.4
2022-08-28T13:36:07.875Z,90.4
2022-08-28T13:38:09.525Z,90
2022-08-28T13:40:30.206Z,88.6
2022-08-28T13:42:16.328Z,79.7
2022-08-28T13:44:18.168Z,79.5
2022-08-28T13:47:22.477Z,77.1
2022-08-28T13:49:24.292Z,76.7
2022-08-28T13:51:26.087Z,75
2022-08-28T13:53:27.913Z,74.9
2022-08-28T13:55:32.902Z,74.8
2022-08-28T13:57:36.401Z,75.5
2022-08-28T13:59:36.526Z,76.4
2022-08-28T14:01:42.227Z,76.2
2022-08-28T14:05:41.959Z,77
2022-08-28T14:07:44.993Z,78.5
2022-08-28T14:13:55.741Z,75.4
2022-08-28T14:15:54.177Z,75.1
2022-08-28T14:21:59.598Z,75.5
2022-08-28T14:28:08.198Z,72.8
2022-08-28T14:32:11.902Z,71.6
2022-08-28T14:34:13.644Z,71.6
2022-08-28T14:36:15.452Z,71.9
2022-08-28T14:38:20.422Z,70.3
2022-08-28T14:40:22.304Z,71
2022-08-28T14:42:24.047Z,70.6
2022-08-28T14:45:28.356Z,70.9
2022-08-28T14:47:30.166Z,71.1
2022-08-28T14:49:31.954Z,71.2
2022-08-28T14:51:36.941Z,72.3
2022-08-28T14:53:38.739Z,72.9
2022-08-28T14:55:40.570Z,73.2
2022-08-28T14:57:42.350Z,73.6
2022-08-28T14:59:44.184Z,73.7
2022-08-28T15:01:45.986Z,73.9
2022-08-28T15:03:47.872Z,73.8
2022-08-28T15:05:52.790Z,73.3
2022-08-28T15:07:54.611Z,72.2
2022-08-28T15:09:56.422Z,72.3
2022-08-28T15:11:58.228Z,72.3
2022-08-28T15:14:00.061Z,73.8
2022-08-28T15:16:01.927Z,74
2022-08-28T15:18:03.688Z,74.3
2022-08-28T15:20:08.699Z,71
2022-08-28T15:22:10.485Z,74.2
2022-08-28T15:24:12.314Z,74.6
2022-08-28T15:26:15.512Z,74.6
2022-08-28T15:28:15.942Z,73.2
2022-08-28T15:30:17.767Z,73
2022-08-28T15:32:19.578Z,73.8
2022-08-28T15:34:24.582Z,77.2
2022-08-28T15:36:26.383Z,77.3
2022-08-28T15:41:32.508Z,77.5
2022-08-28T15:45:36.187Z,77.4
2022-08-28T15:47:41.164Z,76.5
2022-08-28T15:49:44.668Z,76.7
2022-08-28T15:51:44.888Z,71.2
2022-08-28T15:53:46.617Z,72
2022-08-28T15:55:48.439Z,72.3
2022-08-28T15:57:50.260Z,72.7
2022-08-28T15:59:52.097Z,64.8
2022-08-28T16:01:57.132Z,71
2022-08-28T16:03:58.910Z,70.9
2022-08-28T16:06:00.725Z,70.5
2022-08-28T16:08:02.549Z,70.7
2022-08-28T16:10:04.382Z,70.9
2022-08-28T16:12:06.197Z,72.4
2022-08-28T16:14:08.015Z,72.8
2022-08-28T16:16:13.061Z,74.4
2022-08-28T16:18:15.147Z,74.5
2022-08-28T16:20:16.631Z,74.4
2022-08-28T16:22:18.468Z,74.4
2022-08-28T16:24:20.290Z,74.6
2022-08-28T16:26:22.121Z,74.3
2022-08-28T16:28:23.953Z,74.4
2022-08-28T16:30:28.937Z,76
2022-08-28T16:32:30.786Z,74.8
2022-08-28T16:34:32.624Z,74.8
2022-08-28T16:37:01.104Z,74.3
2022-08-28T16:39:04.067Z,74
2022-08-28T16:41:04.778Z,73.4
2022-08-28T16:43:09.800Z,72.9
2022-08-28T16:45:11.613Z,72.9
2022-08-28T16:47:13.501Z,73
2022-08-28T16:49:15.286Z,73
2022-08-28T16:51:17.103Z,74.3
2022-08-28T16:53:19.989Z,76.3
2022-08-28T16:55:20.781Z,77.6
2022-08-28T17:01:29.564Z,80.7
2022-08-28T17:03:31.302Z,81.2
2022-08-28T17:05:33.114Z,81.5
2022-08-28T17:07:34.957Z,82.1
2022-08-28T17:09:36.864Z,83.9
2022-08-28T17:11:41.774Z,86.2
2022-08-28T17:13:43.612Z,87
2022-08-28T17:19:49.122Z,89.3
2022-08-28T17:21:50.988Z,89.7
2022-08-28T17:23:52.773Z,90.3
2022-08-28T17:27:59.631Z,91.3
2022-08-28T17:30:01.509Z,91.5
2022-08-28T17:37:09.527Z,92
2022-08-28T17:43:18.232Z,92.9
2022-08-28T17:45:20.099Z,93.5
2022-08-28T17:47:27.408Z,93.7
2022-08-28T17:49:23.789Z,93.9
2022-08-28T17:51:42.802Z,94.2
2022-08-28T17:53:30.658Z,94.7
2022-08-28T17:55:32.524Z,94.9
2022-08-28T17:57:34.369Z,95.3
2022-08-28T18:01:38.126Z,95.7
2022-08-28T18:03:43.945Z,96
2022-08-28T18:05:41.793Z,96.2
2022-08-28T18:07:46.793Z,96.7
2022-08-28T18:09:48.650Z,97
2022-08-28T18:11:50.512Z,97.3
2022-08-28T18:13:52.379Z,97.4
2022-08-28T18:17:56.098Z,98.3
2022-08-28T18:19:58.314Z,98.7
2022-08-28T18:22:03.102Z,99.3
2022-08-28T18:24:04.870Z,99.7
2022-08-28T18:26:06.697Z,99.8
2022-08-28T18:27:09.206Z,99.9
2022-08-28T18:29:11.101Z,99.9
2022-08-28T18:33:14.828Z,99.9
2022-08-28T18:35:19.840Z,99.9
2022-08-28T18:37:21.701Z,99.9
2022-08-28T18:41:30.697Z,99.9
2022-08-28T18:45:29.187Z,99.9
2022-08-28T18:47:31.039Z,99.9
2022-08-28T18:49:36.088Z,99.9
2022-08-28T18:51:38.180Z,99.9
2022-08-28T18:53:43.143Z,99.9
2022-08-28T18:55:41.755Z,99.9
2022-08-28T19:09:59.514Z,99.9
2022-08-28T19:12:01.399Z,99.9
2022-08-28T19:14:03.676Z,99.9
2022-08-28T19:16:05.249Z,99.9
2022-08-28T19:18:10.195Z,99.9
2022-08-28T19:20:12.044Z,99.9
2022-08-28T19:22:13.966Z,99.9
2022-08-28T19:23:17.872Z,99.9
2022-08-28T19:25:23.324Z,99.9
2022-08-28T19:27:20.208Z,99.9
2022-08-28T19:29:22.075Z,99.9
2022-08-28T19:33:28.991Z,99.9
2022-08-28T19:37:32.774Z,99.9
2022-08-28T19:39:34.649Z,99.9
2022-08-28T19:41:36.540Z,99.9
2022-08-28T19:45:43.465Z,99.9
2022-08-28T19:47:45.343Z,99.9
2022-08-28T19:49:47.225Z,99.9
2022-08-28T19:51:49.119Z,99.9
2022-08-28T19:53:56.109Z,99.9
2022-08-28T19:55:52.901Z,99.9
2022-08-28T19:57:54.804Z,99.9
2022-08-28T19:59:59.822Z,99.9
2022-08-28T20:02:01.706Z,99.9
2022-08-28T20:06:05.508Z,99.9
2022-08-28T20:10:09.272Z,99.9
2022-08-28T20:14:16.246Z,99.9
2022-08-28T20:18:20.022Z,99.9
2022-08-28T20:20:48.590Z,99.9
2022-08-28T20:22:53.828Z,99.9
2022-08-28T20:24:52.381Z,99.9
2022-08-28T20:26:57.410Z,99.9
2022-08-28T20:28:59.336Z,99.9
2022-08-28T20:31:01.309Z,99.9
2022-08-28T20:33:03.130Z,99.9
2022-08-28T20:35:05.146Z,99.9
2022-08-28T20:37:07.107Z,99.9
2022-08-28T20:39:08.874Z,99.9
2022-08-28T20:41:13.920Z,99.9
2022-08-28T20:43:15.812Z,99.9
2022-08-28T20:45:17.716Z,99.9
2022-08-28T20:47:19.632Z,99.9
2022-08-28T20:51:23.436Z,99.9
2022-08-28T20:55:30.382Z,99.9
2022-08-28T20:57:32.264Z,99.9
2022-08-28T20:59:35.534Z,99.9
2022-08-28T21:01:36.114Z,99.9
2022-08-28T21:03:37.982Z,99.9
2022-08-28T21:05:41.213Z,99.9
2022-08-28T21:07:41.820Z,99.9
2022-08-28T21:10:05.806Z,99.9
2022-08-28T21:14:53.226Z,99.9
2022-08-28T21:16:55.266Z,99.9
2022-08-28T21:23:03.998Z,99.9
2022-08-28T21:25:05.914Z,99.9
2022-08-28T21:27:07.823Z,99.9
2022-08-28T21:29:09.740Z,99.9
2022-08-28T21:31:11.725Z,99.9
2022-08-28T21:33:13.572Z,99.9
2022-08-28T21:35:15.493Z,99.9
2022-08-28T21:37:20.549Z,99.9
2022-08-28T21:39:22.449Z,99.9
2022-08-28T21:41:24.384Z,99.9
2022-08-28T21:49:32.061Z,99.9
2022-08-28T21:51:37.111Z,99.9
2022-08-28T21:55:40.950Z,99.9
2022-08-28T21:57:42.886Z,99.9
2022-08-28T21:59:44.815Z,99.9
2022-08-28T22:01:46.746Z,99.9
2022-08-28T22:03:48.648Z,99.9
2022-08-28T22:05:53.693Z,99.9
2022-08-28T22:07:55.618Z,99.9
2022-08-28T22:11:00.075Z,99.9
2022-08-28T22:13:01.984Z,99.9
2022-08-28T22:15:03.900Z,99.9
2022-08-28T22:17:10.642Z,99.9
2022-08-28T22:19:10.889Z,99.9
2022-08-28T22:21:12.816Z,99.9
2022-08-28T22:23:14.770Z,99.9
2022-08-28T22:25:16.632Z,99.9
2022-08-28T22:27:18.570Z,99.9
2022-08-28T22:29:20.490Z,99.9
2022-08-28T22:31:22.442Z,99.9
2022-08-28T22:33:27.487Z,99.9
2022-08-28T22:35:29.411Z,99.9
2022-08-28T22:37:31.323Z,99.9
2022-08-28T22:39:33.253Z,99.9
2022-08-28T22:41:35.178Z,99.9
2022-08-28T22:45:39.100Z,99.9
2022-08-28T22:47:44.082Z,99.9
2022-08-28T22:51:47.925Z,99.9
2022-08-28T22:55:51.783Z,99.9
2022-08-28T22:59:55.634Z,99.9
2022-08-28T23:04:02.706Z,99.9
2022-08-28T23:06:04.584Z,99.9
2022-08-28T23:07:07.097Z,99.9
2022-08-28T23:09:09.018Z,99.9
2022-08-28T23:11:10.944Z,99.9
2022-08-28T23:13:13.466Z,99.9
2022-08-28T23:15:17.948Z,99.9
2022-08-28T23:17:19.884Z,99.9
2022-08-28T23:19:21.999Z,99.9
2022-08-28T23:21:23.736Z,99.9
2022-08-28T23:23:25.634Z,99.9
2022-08-28T23:25:27.556Z,99.9
2022-08-28T23:27:36.267Z,99.9
2022-08-28T23:29:34.534Z,99.9
2022-08-28T23:31:36.589Z,99.9
2022-08-28T23:45:53.124Z,99.9
2022-08-28T23:47:54.994Z,99.9
2022-08-28T23:49:56.912Z,99.9
2022-08-28T23:56:02.703Z,99.9
